Decoded Metar for SAWE (RIO GRANDE in ARGENTINA) (IATA:RGA) | Meteo·Mobile Aviation Weather
aviador You're here:

SAWE Decoded Metar

RIO GRANDE in ARGENTINA
Report Time2018-10-23 09:00:00
UTC Time2018-10-23 09:46:28
Flight Rules vfr VFR
Wind230° at 07 kt
W.Decomp.*RWY 25: 5.9 kt HW 3.7 kt LCW
W.Rank230° ranks 6
Current wind is below 230° avg. (9.2)
Visibility9999 m
Phenomena:N/A
Clouds:N/A
Expected CloudBase > 400 ft AGL from Temp-Dew spread
CeilingNone
Temp00°C (ISA -15)
Dew Point-1°C (93% RH)
AAT-4.6°C
QNH1019 hPa
Density Alt-1,870 ft
Elevation72 ft
Report Wrong Elevation
Raw Report
METAR SAWE 230900Z 23007KT CAVOK 00/M01 Q1019=

Extra information for SAWE:More info

Metar Taf Metar & Taf Last 4 Metars F.Rules Stats Wind Profile Meteogram Temp Stats Airport Information Weather charts Add Link Nearby VenuesMetar ALERT Operation Metar Decoded Social comments